createdAt,value
2018-09-28T00:01:53.259Z,49.64
2018-09-28T00:06:46.454Z,49.61
2018-09-28T00:11:39.847Z,50.62
2018-09-28T00:16:32.998Z,50.31
2018-09-28T00:21:26.198Z,50.19
2018-09-28T00:26:19.470Z,50.24
2018-09-28T00:31:12.622Z,50.16
2018-09-28T00:36:05.891Z,51.01
2018-09-28T00:40:59.396Z,51.77
2018-09-28T00:45:52.714Z,52.30
2018-09-28T00:50:45.976Z,52.64
2018-09-28T00:55:39.134Z,52.51
2018-09-28T01:00:32.636Z,53.24
2018-09-28T01:05:25.855Z,53.16
2018-09-28T01:10:19.164Z,53.04
2018-09-28T01:15:12.334Z,53.66
2018-09-28T01:20:05.656Z,53.69
2018-09-28T01:24:59.227Z,52.74
2018-09-28T01:29:52.465Z,53.83
2018-09-28T01:34:45.815Z,56.27
2018-09-28T01:39:39.033Z,61.67
2018-09-28T01:44:32.120Z,50.04
2018-09-28T01:49:25.393Z,47.68
2018-09-28T01:54:18.747Z,47.94
2018-09-28T01:59:12.002Z,49.48
2018-09-28T02:04:05.285Z,51.11
2018-09-28T02:08:58.628Z,51.85
2018-09-28T02:13:52.006Z,52.43
2018-09-28T02:18:45.325Z,53.92
2018-09-28T02:23:38.564Z,51.65
2018-09-28T02:28:32.000Z,51.25
2018-09-28T02:33:25.202Z,52.15
2018-09-28T02:38:18.500Z,52.73
2018-09-28T02:43:11.889Z,52.84
2018-09-28T02:48:05.310Z,51.91
2018-09-28T02:52:59.608Z,52.96
2018-09-28T02:57:53.112Z,53.22
2018-09-28T03:02:46.286Z,54.24
2018-09-28T03:07:39.434Z,52.99
2018-09-28T03:12:32.958Z,52.13
2018-09-28T03:17:26.123Z,53.47
2018-09-28T03:22:19.411Z,53.73
2018-09-28T03:27:12.787Z,54.07
2018-09-28T03:32:06.089Z,54.87
2018-09-28T03:36:59.346Z,56.10
2018-09-28T03:41:52.572Z,56.38
2018-09-28T03:46:46.206Z,56.73
2018-09-28T03:51:39.491Z,57.37
2018-09-28T03:56:32.841Z,58.44
2018-09-28T04:01:26.170Z,58.98
2018-09-28T04:06:19.671Z,59.25
2018-09-28T04:11:12.879Z,59.71
2018-09-28T04:16:06.041Z,59.49
2018-09-28T04:20:59.311Z,60.55
2018-09-28T04:25:52.474Z,60.86
2018-09-28T04:30:45.641Z,60.55
2018-09-28T04:35:39.919Z,60.90
2018-09-28T04:40:34.517Z,62.42
2018-09-28T04:45:27.814Z,61.71
2018-09-28T04:50:21.075Z,61.11
2018-09-28T04:55:14.398Z,60.16
2018-09-28T05:00:08.451Z,59.89
2018-09-28T05:05:02.083Z,59.76
2018-09-28T05:09:55.300Z,59.25
2018-09-28T05:14:48.919Z,58.03
2018-09-28T05:19:42.287Z,56.91
2018-09-28T05:24:35.616Z,56.05
2018-09-28T05:29:28.713Z,55.08
2018-09-28T05:34:21.899Z,54.93
2018-09-28T05:39:15.045Z,54.14
2018-09-28T05:44:08.253Z,54.43
2018-09-28T05:49:01.829Z,54.13
2018-09-28T05:53:55.160Z,53.11
2018-09-28T05:58:53.914Z,52.96
2018-09-28T06:03:53.000Z,52.35
2018-09-28T06:08:46.112Z,51.40
2018-09-28T06:13:39.278Z,50.53
2018-09-28T06:18:33.004Z,50.27
2018-09-28T06:23:26.351Z,50.15
2018-09-28T06:28:19.619Z,46.96
2018-09-28T06:33:12.835Z,50.73
2018-09-28T06:38:06.124Z,48.56
2018-09-28T06:42:59.461Z,50.91
2018-09-28T06:47:52.727Z,46.96
2018-09-28T06:52:46.044Z,45.98
2018-09-28T06:57:39.258Z,50.54
2018-09-28T07:02:32.616Z,51.88
2018-09-28T07:07:26.353Z,44.77
2018-09-28T07:12:19.871Z,45.46
2018-09-28T07:17:13.064Z,43.00
2018-09-28T07:22:06.753Z,46.11
2018-09-28T07:26:59.989Z,39.52
2018-09-28T07:31:53.518Z,47.43
2018-09-28T07:36:46.829Z,39.99
2018-09-28T07:41:41.293Z,40.04
2018-09-28T07:46:34.856Z,37.75
2018-09-28T07:51:28.050Z,39.44
2018-09-28T07:56:21.389Z,38.04
2018-09-28T08:01:14.705Z,42.24
2018-09-28T08:06:07.970Z,40.58
2018-09-28T08:11:01.100Z,36.27
2018-09-28T08:15:56.228Z,36.62
2018-09-28T08:20:49.595Z,42.93
2018-09-28T08:25:42.808Z,35.78
2018-09-28T08:30:36.189Z,40.32
2018-09-28T08:35:29.621Z,36.00
2018-09-28T08:40:22.888Z,37.00
2018-09-28T08:45:16.395Z,35.18
2018-09-28T08:50:09.791Z,38.54
2018-09-28T08:55:03.149Z,35.13
2018-09-28T08:59:56.392Z,35.43
2018-09-28T09:04:49.662Z,39.05
2018-09-28T09:09:42.922Z,41.46
2018-09-28T09:14:36.101Z,33.79
2018-09-28T09:19:29.394Z,35.53
2018-09-28T09:24:22.798Z,33.72
2018-09-28T09:29:16.009Z,32.23
2018-09-28T09:34:09.225Z,33.25
2018-09-28T09:39:02.493Z,32.74
2018-09-28T09:43:55.739Z,32.99
2018-09-28T09:48:49.141Z,33.22
2018-09-28T09:53:42.282Z,32.71
2018-09-28T09:58:35.598Z,32.17
2018-09-28T10:03:34.347Z,31.14
2018-09-28T10:08:27.709Z,30.75
2018-09-28T10:13:21.008Z,31.78
2018-09-28T10:18:14.453Z,32.24
2018-09-28T10:23:07.933Z,34.11
2018-09-28T10:28:01.901Z,32.67
2018-09-28T10:32:56.127Z,31.46
2018-09-28T10:37:49.431Z,32.79
2018-09-28T10:42:42.651Z,32.25
2018-09-28T10:47:35.999Z,31.13
2018-09-28T10:52:29.423Z,31.40
2018-09-28T10:57:22.567Z,30.96
2018-09-28T11:02:16.133Z,33.05
2018-09-28T11:07:09.285Z,30.03
2018-09-28T11:12:02.809Z,30.85
2018-09-28T11:17:00.566Z,28.80
2018-09-28T11:21:54.037Z,28.85
2018-09-28T11:26:47.216Z,29.74
2018-09-28T11:31:40.519Z,29.07
2018-09-28T11:36:33.887Z,28.82
2018-09-28T11:41:27.286Z,29.41
2018-09-28T11:46:20.740Z,28.80
2018-09-28T11:51:14.100Z,28.91
2018-09-28T11:56:07.628Z,28.96
2018-09-28T12:01:02.360Z,28.82
2018-09-28T12:05:55.778Z,30.09
2018-09-28T12:10:49.046Z,32.01
2018-09-28T12:15:44.384Z,28.43
2018-09-28T12:20:37.632Z,28.83
2018-09-28T12:25:31.105Z,27.59
2018-09-28T12:30:24.772Z,29.01
2018-09-28T12:35:18.316Z,27.33
2018-09-28T12:40:11.541Z,27.54
2018-09-28T12:45:05.160Z,27.50
2018-09-28T12:49:58.412Z,26.85
2018-09-28T12:54:51.766Z,26.91
2018-09-28T12:59:45.010Z,29.96
2018-09-28T13:04:38.258Z,26.68
2018-09-28T13:09:31.668Z,27.64
2018-09-28T13:14:26.095Z,28.67
2018-09-28T13:19:19.562Z,27.53
2018-09-28T13:24:12.817Z,25.71
2018-09-28T13:29:06.202Z,25.52
2018-09-28T13:33:59.461Z,26.56
2018-09-28T13:38:53.445Z,25.50
2018-09-28T13:43:46.613Z,24.96
2018-09-28T13:48:39.807Z,24.85
2018-09-28T13:53:33.068Z,25.88
2018-09-28T13:58:26.472Z,26.60
2018-09-28T14:03:19.824Z,26.17
2018-09-28T14:08:13.204Z,26.58
2018-09-28T14:13:06.532Z,25.90
2018-09-28T14:18:01.460Z,26.50
2018-09-28T14:22:54.867Z,26.24
2018-09-28T14:27:48.114Z,27.13
2018-09-28T14:32:41.503Z,28.61
2018-09-28T14:37:34.895Z,29.36
2018-09-28T14:42:28.088Z,30.51
2018-09-28T14:47:21.356Z,31.21
2018-09-28T14:52:14.524Z,30.80
2018-09-28T14:57:07.965Z,30.46
2018-09-28T15:02:01.232Z,33.35
2018-09-28T15:06:54.699Z,35.18
2018-09-28T15:11:47.885Z,36.48
2018-09-28T15:16:41.208Z,37.15
2018-09-28T15:21:34.602Z,37.43
2018-09-28T15:26:29.785Z,38.21
2018-09-28T15:31:23.048Z,38.48
2018-09-28T15:36:16.235Z,39.18
2018-09-28T15:41:09.865Z,39.57
2018-09-28T15:46:03.070Z,40.36
2018-09-28T15:50:56.384Z,40.89
2018-09-28T15:55:50.119Z,41.58
2018-09-28T16:00:43.421Z,42.71
2018-09-28T16:05:37.127Z,43.49
2018-09-28T16:10:31.134Z,45.16
2018-09-28T16:15:24.455Z,45.01
2018-09-28T16:20:17.733Z,45.59
2018-09-28T16:25:13.604Z,45.48
2018-09-28T16:30:07.133Z,46.51
2018-09-28T16:35:00.974Z,46.34
2018-09-28T16:39:55.448Z,46.94
2018-09-28T16:44:48.665Z,47.46
2018-09-28T16:49:41.844Z,48.04
2018-09-28T16:54:35.354Z,48.40
2018-09-28T16:59:28.838Z,49.14
2018-09-28T17:04:22.009Z,49.12
2018-09-28T17:09:15.557Z,49.21
2018-09-28T17:14:08.762Z,50.10
2018-09-28T17:19:02.752Z,50.75
2018-09-28T17:23:56.018Z,51.08
2018-09-28T17:28:49.580Z,50.98
2018-09-28T17:33:42.791Z,51.86
2018-09-28T17:38:35.957Z,52.48
2018-09-28T17:43:29.214Z,52.56
2018-09-28T17:48:22.670Z,53.64
2018-09-28T17:53:15.959Z,53.29
2018-09-28T17:58:09.643Z,55.35
2018-09-28T18:03:03.096Z,54.90
2018-09-28T18:07:56.397Z,55.59
2018-09-28T18:12:49.960Z,55.97
2018-09-28T18:17:43.427Z,56.56
2018-09-28T18:22:36.861Z,56.46
2018-09-28T18:27:30.284Z,56.17
2018-09-28T18:32:23.673Z,57.17
2018-09-28T18:37:17.121Z,57.61
2018-09-28T18:42:10.288Z,57.93
2018-09-28T18:47:03.624Z,58.30
2018-09-28T18:51:56.840Z,58.35
2018-09-28T18:56:50.277Z,58.45
2018-09-28T19:01:43.689Z,58.92
2018-09-28T19:06:37.107Z,58.83
2018-09-28T19:11:30.704Z,59.37
2018-09-28T19:16:24.216Z,59.97
2018-09-28T19:21:17.628Z,60.05
2018-09-28T19:26:10.947Z,59.58
2018-09-28T19:31:04.441Z,60.04
2018-09-28T19:35:57.625Z,59.35
2018-09-28T19:40:50.868Z,60.19
2018-09-28T19:45:44.222Z,59.56
2018-09-28T19:50:37.511Z,60.06
2018-09-28T19:55:30.862Z,60.52
2018-09-28T20:00:24.074Z,60.56
2018-09-28T20:05:17.267Z,60.41
2018-09-28T20:10:10.608Z,60.14
2018-09-28T20:15:03.945Z,59.56
2018-09-28T20:19:57.681Z,58.98
2018-09-28T20:24:50.848Z,58.35
2018-09-28T20:29:44.431Z,58.18
2018-09-28T20:34:37.629Z,58.24
2018-09-28T20:39:30.938Z,58.35
2018-09-28T20:44:24.354Z,59.46
2018-09-28T20:49:17.716Z,59.41
2018-09-28T20:54:10.930Z,60.19
2018-09-28T20:59:04.192Z,60.86
2018-09-28T21:03:57.514Z,61.31
2018-09-28T21:08:50.756Z,60.98
2018-09-28T21:13:43.999Z,61.43
2018-09-28T21:18:37.198Z,61.24
2018-09-28T21:23:30.419Z,61.77
2018-09-28T21:28:23.719Z,62.49
2018-09-28T21:33:17.518Z,62.69
2018-09-28T21:38:10.396Z,62.74
2018-09-28T21:43:03.538Z,62.64
2018-09-28T21:47:57.182Z,63.07
2018-09-28T21:52:50.510Z,63.23
2018-09-28T21:57:43.712Z,63.15
2018-09-28T22:02:37.727Z,63.68
2018-09-28T22:07:31.008Z,63.51
2018-09-28T22:12:24.320Z,63.33
2018-09-28T22:17:17.652Z,63.58
2018-09-28T22:22:11.212Z,63.66
2018-09-28T22:27:04.482Z,63.42
2018-09-28T22:31:57.771Z,63.01
2018-09-28T22:36:50.959Z,62.76
2018-09-28T22:41:44.173Z,62.89
2018-09-28T22:46:37.763Z,63.45
2018-09-28T22:51:31.258Z,64.01
2018-09-28T22:56:24.459Z,64.75
2018-09-28T23:01:17.680Z,65.53
2018-09-28T23:06:10.882Z,66.09
2018-09-28T23:11:04.004Z,66.52
2018-09-28T23:15:58.320Z,66.79
2018-09-28T23:20:51.506Z,67.09
2018-09-28T23:25:45.073Z,67.92
2018-09-28T23:30:38.264Z,68.06
2018-09-28T23:35:31.525Z,68.69
2018-09-28T23:40:24.993Z,69.25
2018-09-28T23:45:18.270Z,68.69
2018-09-28T23:50:11.648Z,68.56
2018-09-28T23:55:05.050Z,67.87
2018-09-28T23:59:58.314Z,67.10
